createdAt,value
2023-08-24T00:00:59.744Z,100.00
2023-08-24T00:04:03.496Z,100.00
2023-08-24T00:07:07.394Z,100.00
2023-08-24T00:10:11.821Z,100.00
2023-08-24T00:13:15.628Z,100.00
2023-08-24T00:16:21.692Z,100.00
2023-08-24T00:19:25.740Z,100.00
2023-08-24T00:22:29.387Z,100.00
2023-08-24T00:25:33.661Z,100.00
2023-08-24T00:28:37.298Z,100.00
2023-08-24T00:31:42.445Z,100.00
2023-08-24T00:34:46.165Z,100.00
2023-08-24T00:37:49.975Z,100.00
2023-08-24T00:40:54.959Z,100.00
2023-08-24T00:43:58.905Z,100.00
2023-08-24T00:47:04.034Z,100.00
2023-08-24T00:50:09.613Z,100.00
2023-08-24T00:53:14.024Z,100.00
2023-08-24T00:56:18.245Z,100.00
2023-08-24T00:59:22.230Z,100.00
2023-08-24T01:02:27.975Z,100.00
2023-08-24T01:05:31.976Z,100.00
2023-08-24T01:08:35.823Z,100.00
2023-08-24T01:11:55.680Z,100.00
2023-08-24T01:15:09.450Z,100.00
2023-08-24T01:18:21.472Z,100.00
2023-08-24T01:21:27.237Z,100.00
2023-08-24T01:24:40.789Z,100.00
2023-08-24T01:27:48.370Z,100.00
2023-08-24T01:30:52.503Z,100.00
2023-08-24T01:33:56.252Z,100.00
2023-08-24T01:36:59.870Z,100.00
2023-08-24T01:40:13.289Z,100.00
2023-08-24T01:43:36.828Z,100.00
2023-08-24T01:46:49.652Z,100.00
2023-08-24T01:49:53.916Z,100.00
2023-08-24T01:52:57.989Z,100.00
2023-08-24T01:56:01.750Z,100.00
2023-08-24T01:59:06.843Z,100.00
2023-08-24T02:02:10.486Z,100.00
2023-08-24T02:05:14.173Z,100.00
2023-08-24T02:08:17.846Z,100.00
2023-08-24T02:11:21.601Z,100.00
2023-08-24T02:14:26.603Z,100.00
2023-08-24T02:17:30.288Z,100.00
2023-08-24T02:20:37.833Z,100.00
2023-08-24T02:23:41.823Z,100.00
2023-08-24T02:26:45.413Z,100.00
2023-08-24T02:29:50.448Z,100.00
2023-08-24T02:32:54.221Z,100.00
2023-08-24T02:35:58.153Z,100.00
2023-08-24T02:39:02.087Z,100.00
2023-08-24T02:42:06.028Z,100.00
2023-08-24T02:45:26.972Z,100.00
2023-08-24T02:48:30.819Z,100.00
2023-08-24T02:51:34.462Z,100.00
2023-08-24T02:54:38.053Z,100.00
2023-08-24T02:57:41.666Z,100.00
2023-08-24T03:00:47.839Z,100.00
2023-08-24T03:03:51.805Z,100.00
2023-08-24T03:06:55.430Z,100.00
2023-08-24T03:09:59.072Z,100.00
2023-08-24T03:13:02.698Z,100.00
2023-08-24T03:16:08.877Z,100.00
2023-08-24T03:19:13.340Z,100.00
2023-08-24T03:22:17.034Z,100.00
2023-08-24T03:25:20.795Z,100.00
2023-08-24T03:28:24.397Z,100.00
2023-08-24T03:31:30.211Z,100.00
2023-08-24T03:34:33.849Z,100.00
2023-08-24T03:37:39.797Z,100.00
2023-08-24T03:40:43.858Z,100.00
2023-08-24T03:43:47.520Z,100.00
2023-08-24T03:46:52.728Z,100.00
2023-08-24T03:49:56.704Z,100.00
2023-08-24T03:53:00.334Z,100.00
2023-08-24T03:56:04.712Z,100.00
2023-08-24T03:59:08.321Z,100.00
2023-08-24T04:02:13.426Z,100.00
2023-08-24T04:05:17.016Z,100.00
2023-08-24T04:08:20.690Z,100.00
2023-08-24T04:11:24.373Z,100.00
2023-08-24T04:14:28.654Z,100.00
2023-08-24T04:17:33.771Z,100.00
2023-08-24T04:20:37.514Z,100.00
2023-08-24T04:23:45.978Z,100.00
2023-08-24T04:26:49.622Z,100.00
2023-08-24T04:29:53.328Z,100.00
2023-08-24T04:32:58.359Z,100.00
2023-08-24T04:36:02.075Z,100.00
2023-08-24T04:39:06.146Z,100.00
2023-08-24T04:42:09.975Z,100.00
2023-08-24T04:45:13.685Z,100.00
2023-08-24T04:48:18.709Z,100.00
2023-08-24T04:51:22.539Z,100.00
2023-08-24T04:54:26.131Z,100.00
2023-08-24T04:57:29.786Z,100.00
2023-08-24T05:00:34.645Z,100.00
2023-08-24T05:03:39.873Z,100.00
2023-08-24T05:06:43.478Z,100.00
2023-08-24T05:09:47.155Z,100.00
2023-08-24T05:12:50.816Z,100.00
2023-08-24T05:15:54.488Z,100.00
2023-08-24T05:18:59.472Z,100.00
2023-08-24T05:22:03.667Z,100.00
2023-08-24T05:25:08.677Z,100.00
2023-08-24T05:28:12.342Z,100.00
2023-08-24T05:31:16.375Z,100.00
2023-08-24T05:34:22.224Z,100.00
2023-08-24T05:37:26.907Z,100.00
2023-08-24T05:40:30.604Z,100.00
2023-08-24T05:43:34.289Z,100.00
2023-08-24T05:46:37.950Z,100.00
2023-08-24T05:49:42.995Z,100.00
2023-08-24T05:52:46.786Z,100.00
2023-08-24T05:55:50.451Z,100.00
2023-08-24T05:58:54.160Z,100.00
2023-08-24T06:01:57.945Z,100.00
2023-08-24T06:05:03.021Z,100.00
2023-08-24T06:08:07.708Z,100.00
2023-08-24T06:11:12.043Z,100.00
2023-08-24T06:14:16.497Z,100.00
2023-08-24T06:17:20.462Z,100.00
2023-08-24T06:20:25.508Z,100.00
2023-08-24T06:23:29.195Z,100.00
2023-08-24T06:26:32.841Z,100.00
2023-08-24T06:29:37.866Z,100.00
2023-08-24T06:32:41.926Z,100.00
2023-08-24T06:35:47.062Z,100.00
2023-08-24T06:38:50.649Z,100.00
2023-08-24T06:41:54.334Z,100.00
2023-08-24T06:44:57.997Z,100.00
2023-08-24T06:48:01.825Z,100.00
2023-08-24T06:51:06.987Z,100.00
2023-08-24T06:54:10.817Z,100.00
2023-08-24T06:57:14.387Z,100.00
2023-08-24T07:00:22.877Z,100.00
2023-08-24T07:03:29.069Z,100.00
2023-08-24T07:06:36.946Z,100.00
2023-08-24T07:09:40.571Z,100.00
2023-08-24T07:12:46.053Z,100.00
2023-08-24T07:15:50.826Z,100.00
2023-08-24T07:18:54.608Z,100.00
2023-08-24T07:21:59.631Z,100.00
2023-08-24T07:25:06.217Z,100.00
2023-08-24T07:28:10.646Z,100.00
2023-08-24T07:31:14.765Z,100.00
2023-08-24T07:34:18.497Z,100.00
2023-08-24T07:37:23.558Z,100.00
2023-08-24T07:40:28.336Z,100.00
2023-08-24T07:43:32.061Z,100.00
2023-08-24T07:46:35.998Z,100.00
2023-08-24T07:49:44.368Z,100.00
2023-08-24T07:52:49.891Z,100.00
2023-08-24T07:55:55.039Z,100.00
2023-08-24T07:58:58.724Z,100.00
2023-08-24T08:02:02.459Z,100.00
2023-08-24T08:05:08.422Z,100.00
2023-08-24T08:08:14.245Z,100.00
2023-08-24T08:11:17.938Z,100.00
2023-08-24T08:14:22.577Z,100.00
2023-08-24T08:17:26.707Z,100.00
2023-08-24T08:20:30.707Z,100.00
2023-08-24T08:23:35.777Z,100.00
2023-08-24T08:26:39.416Z,100.00
2023-08-24T08:29:43.959Z,100.00
2023-08-24T08:32:47.834Z,100.00
2023-08-24T08:35:51.537Z,100.00
2023-08-24T08:38:56.530Z,100.00
2023-08-24T08:42:00.292Z,100.00
2023-08-24T08:45:10.634Z,100.00
2023-08-24T08:48:14.528Z,100.00
2023-08-24T08:51:20.785Z,100.00
2023-08-24T08:54:25.930Z,100.00
2023-08-24T09:00:38.111Z,100.00
2023-08-24T09:03:42.839Z,100.00
2023-08-24T09:06:46.758Z,100.00
2023-08-24T09:09:51.986Z,100.00
2023-08-24T09:12:55.814Z,100.00
2023-08-24T09:16:07.593Z,100.00
2023-08-24T09:19:14.618Z,100.00
2023-08-24T09:22:18.565Z,100.00
2023-08-24T09:25:23.610Z,100.00
2023-08-24T09:28:27.309Z,100.00
2023-08-24T09:31:38.900Z,100.00
2023-08-24T09:34:44.274Z,100.00
2023-08-24T09:37:47.919Z,100.00
2023-08-24T09:40:55.937Z,100.00
2023-08-24T09:44:06.420Z,100.00
2023-08-24T09:47:13.156Z,100.00
2023-08-24T09:50:16.802Z,100.00
2023-08-24T09:53:23.425Z,100.00
2023-08-24T09:56:31.066Z,100.00
2023-08-24T09:59:37.591Z,100.00
2023-08-24T10:02:54.599Z,100.00
2023-08-24T10:06:08.017Z,100.00
2023-08-24T10:09:31.244Z,100.00
2023-08-24T10:12:53.276Z,100.00
2023-08-24T10:15:58.367Z,100.00
2023-08-24T10:19:04.752Z,100.00
2023-08-24T10:22:10.229Z,100.00
2023-08-24T10:25:15.339Z,100.00
2023-08-24T10:28:22.910Z,100.00
2023-08-24T10:31:27.165Z,100.00
2023-08-24T10:34:30.959Z,100.00
2023-08-24T10:37:35.420Z,100.00
2023-08-24T10:40:45.112Z,100.00
2023-08-24T10:43:52.730Z,100.00
2023-08-24T10:47:20.424Z,100.00
2023-08-24T10:50:25.215Z,100.00
2023-08-24T10:53:42.709Z,100.00
2023-08-24T10:56:58.139Z,100.00
2023-08-24T11:00:07.950Z,100.00
2023-08-24T11:03:13.108Z,100.00
2023-08-24T11:06:24.158Z,100.00
2023-08-24T11:09:28.785Z,100.00
2023-08-24T11:13:10.741Z,100.00
2023-08-24T11:16:42.788Z,100.00
2023-08-24T11:19:52.562Z,100.00
2023-08-24T11:22:58.714Z,100.00
2023-08-24T11:26:03.133Z,100.00
2023-08-24T11:29:08.198Z,100.00
2023-08-24T11:32:13.627Z,100.00
2023-08-24T11:35:17.432Z,100.00
2023-08-24T11:38:23.307Z,100.00
2023-08-24T11:41:27.955Z,100.00
2023-08-24T11:44:32.521Z,100.00
2023-08-24T11:47:37.604Z,100.00
2023-08-24T11:50:41.332Z,99.80
2023-08-24T11:53:48.067Z,97.50
2023-08-24T11:56:51.793Z,96.50
2023-08-24T11:59:56.090Z,97.66
2023-08-24T12:03:02.063Z,97.31
2023-08-24T12:06:13.927Z,100.00
2023-08-24T12:09:18.133Z,100.00
2023-08-24T12:12:24.828Z,100.00
2023-08-24T12:15:31.446Z,96.24
2023-08-24T12:18:49.138Z,98.75
2023-08-24T12:21:53.416Z,96.64
2023-08-24T12:24:57.114Z,91.52
2023-08-24T12:28:14.702Z,96.54
2023-08-24T12:31:20.440Z,92.51
2023-08-24T12:34:25.622Z,95.64
2023-08-24T12:37:29.262Z,95.79
2023-08-24T12:40:34.025Z,93.10
2023-08-24T12:43:40.296Z,92.63
2023-08-24T12:46:44.662Z,91.46
2023-08-24T12:49:51.827Z,91.47
2023-08-24T12:52:57.535Z,95.93
2023-08-24T12:56:01.342Z,99.41
2023-08-24T12:59:05.027Z,89.53
2023-08-24T13:02:08.767Z,94.10
2023-08-24T13:05:14.188Z,87.09
2023-08-24T13:08:17.958Z,88.31
2023-08-24T13:11:21.717Z,91.05
2023-08-24T13:14:25.520Z,86.57
2023-08-24T13:17:29.224Z,81.68
2023-08-24T13:20:34.342Z,83.65
2023-08-24T13:23:38.148Z,84.78
2023-08-24T13:26:42.088Z,81.55
2023-08-24T13:29:45.819Z,86.92
2023-08-24T13:32:50.072Z,84.29
2023-08-24T13:35:55.462Z,80.81
2023-08-24T13:38:59.103Z,79.56
2023-08-24T13:42:03.946Z,81.47
2023-08-24T13:45:09.204Z,80.50
2023-08-24T13:48:12.906Z,87.81
2023-08-24T13:51:19.012Z,81.39
2023-08-24T13:54:22.773Z,93.37
2023-08-24T13:57:26.520Z,87.18
2023-08-24T14:00:30.147Z,86.68
2023-08-24T14:03:34.006Z,80.15
2023-08-24T14:06:39.418Z,85.62
2023-08-24T14:09:55.161Z,83.06
2023-08-24T14:13:06.688Z,85.00
2023-08-24T14:16:10.375Z,84.24
2023-08-24T14:19:14.342Z,86.86
2023-08-24T14:22:19.426Z,93.06
2023-08-24T14:25:23.068Z,87.93
2023-08-24T14:28:26.822Z,86.96
2023-08-24T14:31:32.156Z,86.62
2023-08-24T14:34:37.395Z,84.04
2023-08-24T14:37:42.443Z,97.49
2023-08-24T14:40:46.208Z,91.82
2023-08-24T14:43:50.250Z,91.89
2023-08-24T14:46:54.190Z,92.08
2023-08-24T14:49:57.871Z,86.86
2023-08-24T14:53:03.221Z,85.30
2023-08-24T14:56:06.930Z,84.13
2023-08-24T14:59:10.832Z,87.93
2023-08-24T15:02:14.466Z,94.92
2023-08-24T15:05:19.638Z,95.80
2023-08-24T15:08:26.157Z,92.65
2023-08-24T15:11:30.159Z,88.29
2023-08-24T15:14:34.290Z,86.70
2023-08-24T15:17:38.452Z,89.71
2023-08-24T15:20:44.305Z,96.98
2023-08-24T15:23:49.490Z,93.34
2023-08-24T15:26:53.184Z,96.33
2023-08-24T15:29:56.850Z,95.24
2023-08-24T15:33:00.473Z,100.00
2023-08-24T15:36:04.729Z,96.99
2023-08-24T15:39:09.775Z,98.70
2023-08-24T15:42:13.490Z,100.00
2023-08-24T15:45:30.673Z,100.00
2023-08-24T15:48:34.704Z,100.00
2023-08-24T15:51:40.468Z,100.00
2023-08-24T15:54:45.912Z,100.00
2023-08-24T15:57:49.868Z,100.00
2023-08-24T16:00:54.332Z,100.00
2023-08-24T16:03:58.141Z,100.00
2023-08-24T16:07:01.962Z,100.00
2023-08-24T16:10:08.327Z,100.00
2023-08-24T16:13:12.115Z,100.00
2023-08-24T16:16:15.918Z,100.00
2023-08-24T16:19:19.583Z,100.00
2023-08-24T16:22:23.219Z,100.00
2023-08-24T16:25:28.329Z,100.00
2023-08-24T16:28:32.014Z,100.00
2023-08-24T16:31:36.809Z,100.00
2023-08-24T16:34:41.417Z,100.00
2023-08-24T16:37:45.153Z,100.00
2023-08-24T16:40:50.210Z,100.00
2023-08-24T16:43:53.886Z,100.00
2023-08-24T16:46:57.571Z,100.00
2023-08-24T16:50:01.395Z,100.00
2023-08-24T16:53:05.734Z,100.00
2023-08-24T16:56:10.807Z,100.00
2023-08-24T16:59:14.486Z,100.00
2023-08-24T17:02:18.397Z,100.00
2023-08-24T17:05:22.553Z,100.00
2023-08-24T17:08:26.222Z,100.00
2023-08-24T17:11:31.246Z,100.00
2023-08-24T17:14:35.014Z,100.00
2023-08-24T17:17:38.706Z,100.00
2023-08-24T17:20:42.487Z,100.00
2023-08-24T17:23:46.146Z,100.00
2023-08-24T17:26:51.349Z,100.00
2023-08-24T17:29:55.142Z,100.00
2023-08-24T17:32:59.927Z,100.00
2023-08-24T17:36:04.905Z,100.00
2023-08-24T17:39:09.040Z,100.00
2023-08-24T17:42:14.333Z,100.00
2023-08-24T17:45:20.118Z,100.00
2023-08-24T17:48:23.899Z,100.00
2023-08-24T17:51:30.129Z,100.00
2023-08-24T17:54:33.942Z,100.00
2023-08-24T17:57:39.102Z,100.00
2023-08-24T18:00:42.794Z,100.00
2023-08-24T18:03:46.612Z,100.00
2023-08-24T18:06:50.320Z,100.00
2023-08-24T18:09:53.957Z,100.00
2023-08-24T18:12:59.921Z,100.00
2023-08-24T18:16:03.948Z,100.00
2023-08-24T18:19:07.627Z,100.00
2023-08-24T18:22:11.477Z,100.00
2023-08-24T18:25:15.219Z,100.00
2023-08-24T18:28:20.366Z,100.00
2023-08-24T18:31:25.458Z,100.00
2023-08-24T18:34:29.483Z,100.00
2023-08-24T18:37:33.889Z,100.00
2023-08-24T18:40:42.996Z,100.00
2023-08-24T18:43:48.096Z,100.00
2023-08-24T18:46:52.732Z,100.00
2023-08-24T18:49:56.596Z,100.00
2023-08-24T18:53:00.272Z,100.00
2023-08-24T18:56:03.957Z,100.00
2023-08-24T18:59:09.071Z,100.00
2023-08-24T19:02:16.252Z,100.00
2023-08-24T19:05:20.490Z,100.00
2023-08-24T19:08:24.489Z,100.00
2023-08-24T19:11:28.192Z,100.00
2023-08-24T19:14:36.827Z,100.00
2023-08-24T19:17:40.610Z,100.00
2023-08-24T19:20:45.141Z,100.00
2023-08-24T19:23:49.084Z,100.00
2023-08-24T19:26:53.053Z,100.00
2023-08-24T19:29:59.026Z,100.00
2023-08-24T19:33:02.699Z,100.00
2023-08-24T19:36:07.492Z,100.00
2023-08-24T19:39:11.053Z,100.00
2023-08-24T19:42:14.803Z,100.00
2023-08-24T19:45:26.003Z,100.00
2023-08-24T19:48:31.573Z,100.00
2023-08-24T19:51:35.369Z,100.00
2023-08-24T19:54:39.668Z,100.00
2023-08-24T19:57:43.271Z,100.00
2023-08-24T20:00:48.250Z,100.00
2023-08-24T20:03:51.926Z,100.00
2023-08-24T20:06:56.052Z,100.00
2023-08-24T20:09:59.585Z,100.00
2023-08-24T20:13:03.238Z,100.00
2023-08-24T20:16:09.336Z,100.00
2023-08-24T20:19:15.521Z,100.00
2023-08-24T20:22:19.366Z,100.00
2023-08-24T20:25:24.169Z,100.00
2023-08-24T20:28:32.060Z,100.00
2023-08-24T20:31:38.078Z,100.00
2023-08-24T20:34:41.826Z,100.00
2023-08-24T20:37:45.950Z,100.00
2023-08-24T20:40:50.116Z,100.00
2023-08-24T20:43:53.801Z,100.00
2023-08-24T20:46:58.907Z,100.00
2023-08-24T20:50:02.600Z,100.00
2023-08-24T20:53:08.173Z,100.00
2023-08-24T20:56:13.402Z,100.00
2023-08-24T20:59:18.383Z,100.00
2023-08-24T21:02:24.139Z,100.00
2023-08-24T21:05:27.885Z,100.00
2023-08-24T21:08:31.563Z,100.00
2023-08-24T21:11:36.342Z,100.00
2023-08-24T21:14:40.041Z,100.00
2023-08-24T21:17:45.023Z,100.00
2023-08-24T21:20:48.694Z,100.00
2023-08-24T21:23:53.118Z,100.00
2023-08-24T21:26:56.711Z,100.00
2023-08-24T21:30:00.327Z,100.00
2023-08-24T21:33:05.760Z,100.00
2023-08-24T21:36:09.548Z,100.00
2023-08-24T21:39:13.623Z,100.00
2023-08-24T21:42:17.309Z,100.00
2023-08-24T21:45:29.498Z,100.00
2023-08-24T21:48:34.561Z,100.00
2023-08-24T21:51:38.445Z,100.00
2023-08-24T21:54:42.067Z,100.00
2023-08-24T21:57:45.844Z,100.00
2023-08-24T22:00:49.798Z,100.00
2023-08-24T22:03:54.865Z,100.00
2023-08-24T22:06:58.502Z,100.00
2023-08-24T22:10:02.466Z,100.00
2023-08-24T22:13:06.390Z,100.00
2023-08-24T22:16:10.105Z,100.00
2023-08-24T22:19:26.154Z,100.00
2023-08-24T22:22:31.129Z,100.00
2023-08-24T22:25:35.027Z,100.00
2023-08-24T22:28:38.618Z,100.00
2023-08-24T22:31:42.538Z,100.00
2023-08-24T22:34:47.750Z,100.00
2023-08-24T22:37:51.710Z,100.00
2023-08-24T22:40:55.523Z,100.00
2023-08-24T22:43:59.139Z,100.00
2023-08-24T22:47:02.890Z,100.00
2023-08-24T22:50:09.786Z,100.00
2023-08-24T22:53:14.261Z,100.00
2023-08-24T22:56:18.100Z,100.00
2023-08-24T22:59:21.812Z,100.00
2023-08-24T23:02:26.243Z,100.00
2023-08-24T23:05:31.365Z,100.00
2023-08-24T23:08:35.035Z,100.00
2023-08-24T23:11:39.084Z,100.00
2023-08-24T23:14:42.678Z,100.00
2023-08-24T23:17:46.325Z,100.00
2023-08-24T23:20:52.004Z,100.00
2023-08-24T23:23:55.747Z,100.00
2023-08-24T23:26:59.555Z,100.00
2023-08-24T23:30:03.401Z,100.00
2023-08-24T23:33:08.438Z,100.00
2023-08-24T23:36:13.666Z,100.00
2023-08-24T23:39:17.904Z,100.00
2023-08-24T23:42:22.931Z,100.00
2023-08-24T23:45:26.882Z,100.00
2023-08-24T23:48:30.573Z,100.00
2023-08-24T23:51:36.624Z,100.00
2023-08-24T23:54:40.268Z,100.00
2023-08-24T23:57:43.952Z,100.00
